This is the latest recevied weather packets stored in our database for station/object KG4LKY-5. If no packets are shown the sender has not sent any weather packets the latest 10 day(s).
| Time | Temp. | Humidity | Pressure | Rain* | Wind** | Luminosity | Snow |
|---|---|---|---|---|---|---|---|
| 1777512772 | 12.22° C | 100% | 1013.6 hPa | 1.27 mm | - | - | - |
| 1777512471 | 12.78° C | 100% | 1013.6 hPa | 1.27 mm | - | - | - |
| 1777512171 | 13.33° C | 100% | 1013.5 hPa | 1.27 mm | - | - | - |
| 1777511568 | 13.33° C | 100% | 1013.4 hPa | 1.27 mm | - | - | - |
| 1777511267 | 14.44° C | 100% | 1013.4 hPa | 1.27 mm | - | - | - |
| 1777510968 | 14.44° C | 100% | 1013.2 hPa | 1.27 mm | - | - | - |
| 1777510667 | 15° C | 100% | 1013.2 hPa | 1.27 mm | - | - | - |
| 1777510066 | 15° C | 100% | 1013 hPa | 1.27 mm | - | - | - |
| 1777509465 | 15° C | 97% | 1012.8 hPa | 1.27 mm | - | - | - |
| 1777509164 | 16.67° C | 91% | 1012.8 hPa | 1.27 mm | - | - | - |
| 1777508864 | 15° C | 100% | 1012.8 hPa | 1.27 mm | - | - | - |
| 1777508564 | 16.11° C | 91% | 1012.7 hPa | 1.27 mm | - | - | - |
| 1777508263 | 14.44° C | 99% | 1012.6 hPa | 1.27 mm | - | - | - |
| 1777507963 | 15° C | 98% | 1012.5 hPa | 1.27 mm | - | - | - |
| 1777507663 | 15.56° C | 93% | 1012.5 hPa | 1.27 mm | - | - | - |
| 1777507062 | 16.11° C | 86% | 1012.5 hPa | 1.27 mm | - | - | - |
| 1777506762 | 16.67° C | 82% | 1012.4 hPa | 1.27 mm | - | - | - |
| 1777506462 | 17.22° C | 80% | 1012.5 hPa | 1.27 mm | - | - | - |
| 1777506161 | 17.22° C | 83% | 1012.4 hPa | 1.27 mm | - | - | - |
| 1777505861 | 17.22° C | 85% | 1012.4 hPa | 1.27 mm | - | - | - |
| 1777505561 | 17.22° C | 82% | 1012.6 hPa | 1.27 mm | - | - | - |
| 1777505261 | 17.78° C | 81% | 1012.6 hPa | 1.27 mm | - | - | - |
| 1777504961 | 17.78° C | 80% | 1012.5 hPa | 1.27 mm | - | - | - |
| 1777504660 | 17.78° C | 79% | 1012.8 hPa | 1.27 mm | - | - | - |
| 1777504360 | 17.78° C | 78% | 1012.9 hPa | 1.27 mm | - | - | - |
* Rain since midnight (hover to see other rain measurements)
** Current wind speed in m/s (hover to see current wind gust speed)